Terminal Aerodrome Forecast
Issued by NWS Blacksburg, VA

Current Version | Previous Version | Graphics & Text | Print | Product List | Glossary On
Versions: 1 2 3 4 5 6 7 8 9 10 11 12 13 14 15 16 17 18 19 20 21 22 23 24 25 26 27 28 29 30 31 32 33 34 35 36 37 38 39 40 41 42 43 44 45 46
000
FTUS41 KRNK 291352 AAB
TAFBLF
TAF AMD
KBLF 291352Z 2914/3012 26004KT P6SM SCT015 BKN050
      TEMPO 2914/2916 BKN015
     FM291600 29010KT P6SM VCSH FEW020 BKN040
     FM300000 VRB03KT P6SM SCT040=

USA.gov is the U.S. government's official web portal to all federal, state and local government web resources and services.